createdAt,value
2022-09-22T00:00:22.809Z,7.00
2022-09-22T00:05:25.298Z,7.82
2022-09-22T00:10:28.224Z,6.88
2022-09-22T00:15:30.334Z,6.95
2022-09-22T00:20:32.364Z,6.50
2022-09-22T00:25:34.715Z,7.90
2022-09-22T00:30:40.296Z,7.72
2022-09-22T00:35:42.598Z,8.70
2022-09-22T00:40:44.694Z,9.82
2022-09-22T00:45:54.991Z,9.55
2022-09-22T00:50:59.557Z,9.38
2022-09-22T00:56:12.188Z,9.35
2022-09-22T01:01:15.894Z,10.07
2022-09-22T01:06:23.106Z,9.63
2022-09-22T01:11:26.370Z,9.60
2022-09-22T01:16:41.370Z,10.43
2022-09-22T01:21:51.581Z,10.50
2022-09-22T01:26:56.750Z,11.40
2022-09-22T01:32:10.312Z,12.23
2022-09-22T01:37:51.859Z,11.60
2022-09-22T01:43:05.171Z,12.93
2022-09-22T01:48:17.396Z,12.48
2022-09-22T01:53:23.740Z,12.90
2022-09-22T01:58:30.524Z,12.85
2022-09-22T02:03:41.525Z,12.68
2022-09-22T02:09:03.805Z,12.65
2022-09-22T02:14:06.790Z,12.40
2022-09-22T02:19:18.696Z,12.75
2022-09-22T02:24:38.736Z,12.82
2022-09-22T02:29:49.672Z,12.23
2022-09-22T02:34:55.162Z,12.55
2022-09-22T02:40:04.336Z,13.65
2022-09-22T02:45:22.042Z,13.40
2022-09-22T02:50:26.523Z,13.35
2022-09-22T02:55:29.866Z,13.95
2022-09-22T03:00:32.983Z,14.05
2022-09-22T03:05:34.971Z,14.48
2022-09-22T03:10:36.953Z,15.05
2022-09-22T03:15:39.113Z,14.10
2022-09-22T03:20:41.344Z,15.13
2022-09-22T03:25:43.325Z,13.88
2022-09-22T03:30:45.414Z,13.18
2022-09-22T03:35:47.852Z,13.75
2022-09-22T03:40:51.108Z,14.30
2022-09-22T03:45:59.866Z,13.50
2022-09-22T03:51:02.831Z,14.55
2022-09-22T03:56:13.179Z,13.27
2022-09-22T04:01:15.330Z,13.47
2022-09-22T04:06:17.926Z,13.75
2022-09-22T04:11:20.333Z,14.18
2022-09-22T04:16:23.070Z,15.00
2022-09-22T04:21:25.124Z,15.20
2022-09-22T04:26:27.208Z,15.00
2022-09-22T04:31:29.215Z,15.70
2022-09-22T04:36:31.198Z,14.98
2022-09-22T04:41:33.215Z,14.23
2022-09-22T04:46:35.249Z,14.98
2022-09-22T04:51:37.376Z,15.55
2022-09-22T04:56:39.741Z,14.32
2022-09-22T05:01:41.879Z,15.65
2022-09-22T05:06:43.930Z,15.15
2022-09-22T05:11:47.325Z,13.98
2022-09-22T05:16:49.433Z,15.75
2022-09-22T05:21:51.536Z,14.98
2022-09-22T05:26:54.052Z,15.52
2022-09-22T05:31:56.372Z,15.55
2022-09-22T05:36:58.388Z,17.25
2022-09-22T05:42:00.381Z,16.70
2022-09-22T05:47:02.696Z,15.80
2022-09-22T05:52:04.700Z,18.10
2022-09-22T05:57:06.749Z,16.77
2022-09-22T06:02:25.096Z,16.98
2022-09-22T06:07:28.335Z,17.17
2022-09-22T06:12:30.847Z,18.40
2022-09-22T06:17:33.113Z,18.00
2022-09-22T06:22:37.172Z,18.80
2022-09-22T06:27:40.042Z,19.02
2022-09-22T06:32:43.808Z,19.65
2022-09-22T06:37:51.243Z,19.02
2022-09-22T06:42:58.244Z,19.85
2022-09-22T06:48:00.714Z,19.50
2022-09-22T06:53:05.010Z,19.65
2022-09-22T06:58:07.198Z,19.15
2022-09-22T07:03:17.851Z,19.73
2022-09-22T07:08:21.715Z,18.65
2022-09-22T07:13:25.560Z,19.13
2022-09-22T07:18:29.354Z,18.45
2022-09-22T07:23:31.473Z,17.95
2022-09-22T07:28:35.433Z,17.88
2022-09-22T07:33:39.216Z,17.17
2022-09-22T07:38:46.692Z,16.67
2022-09-22T07:43:51.700Z,17.52
2022-09-22T07:48:54.261Z,17.20
2022-09-22T07:54:09.473Z,16.23
2022-09-22T07:59:16.636Z,15.52
2022-09-22T08:04:21.372Z,15.98
2022-09-22T08:09:24.849Z,14.52
2022-09-22T08:14:27.691Z,14.27
2022-09-22T08:19:30.351Z,14.57
2022-09-22T08:24:32.844Z,14.52
2022-09-22T08:29:34.874Z,13.40
2022-09-22T08:34:36.836Z,12.55
2022-09-22T08:39:38.827Z,12.25
2022-09-22T08:45:07.099Z,8.65
2022-09-22T08:50:52.227Z,10.35
2022-09-22T08:56:06.832Z,9.95
2022-09-22T09:01:28.550Z,7.25
2022-09-22T09:06:40.401Z,8.77
2022-09-22T09:12:11.524Z,6.85
2022-09-22T09:17:22.814Z,6.72
2022-09-22T09:22:32.628Z,5.90
2022-09-22T09:27:43.471Z,5.05
2022-09-22T09:33:14.260Z,4.38
2022-09-22T09:38:19.144Z,4.25
2022-09-22T09:43:23.807Z,4.03
2022-09-22T09:48:25.791Z,3.90
2022-09-22T09:53:34.478Z,4.07
2022-09-22T09:59:19.822Z,3.00
2022-09-22T10:04:27.792Z,3.85
2022-09-22T10:09:29.914Z,3.80
2022-09-22T10:14:34.012Z,4.88
2022-09-22T10:19:36.067Z,3.88
2022-09-22T10:24:38.036Z,3.70
2022-09-22T10:29:42.407Z,3.58
2022-09-22T10:34:50.474Z,4.13
2022-09-22T10:40:03.170Z,3.00
2022-09-22T10:45:09.752Z,2.42
2022-09-22T10:50:37.203Z,2.17
2022-09-22T10:55:54.071Z,2.22
2022-09-22T11:01:13.760Z,1.95
2022-09-22T11:06:48.132Z,1.90
2022-09-22T11:12:35.292Z,1.63
2022-09-22T11:17:52.507Z,1.73
2022-09-22T11:23:17.050Z,1.55
2022-09-22T11:28:44.184Z,1.50
2022-09-22T11:33:58.700Z,2.03
2022-09-22T11:39:03.734Z,1.00
2022-09-22T11:44:30.003Z,1.10
2022-09-22T11:49:45.570Z,0.90
2022-09-22T11:54:50.517Z,1.05
2022-09-22T11:59:59.304Z,1.20
2022-09-22T12:05:32.976Z,1.00
2022-09-22T12:10:39.757Z,0.70
2022-09-22T12:16:05.830Z,0.88
2022-09-22T12:21:36.919Z,1.10
2022-09-22T12:26:45.160Z,1.13
2022-09-22T12:31:49.604Z,1.20
2022-09-22T12:36:55.176Z,1.10
2022-09-22T12:42:06.951Z,1.13
2022-09-22T12:47:34.012Z,0.90
2022-09-22T12:52:41.919Z,1.00
2022-09-22T12:57:46.753Z,1.00
2022-09-22T13:02:50.107Z,1.10
2022-09-22T13:07:53.840Z,1.10
2022-09-22T13:13:02.300Z,0.90
2022-09-22T13:18:05.087Z,0.75
2022-09-22T13:23:14.207Z,0.70
2022-09-22T13:28:20.074Z,0.90
2022-09-22T13:33:27.272Z,0.90
2022-09-22T13:38:30.583Z,1.30
2022-09-22T13:43:37.204Z,0.98
2022-09-22T13:48:39.535Z,0.60
2022-09-22T13:53:48.334Z,0.95
2022-09-22T13:58:52.462Z,1.45
2022-09-22T14:03:55.342Z,0.93
2022-09-22T14:08:57.936Z,0.90
2022-09-22T14:14:03.379Z,1.10
2022-09-22T14:19:11.624Z,0.90
2022-09-22T14:24:14.206Z,0.90
2022-09-22T14:29:18.774Z,1.25
2022-09-22T14:34:25.915Z,1.20
2022-09-22T14:39:33.955Z,0.80
2022-09-22T14:44:50.010Z,2.58
2022-09-22T14:50:21.123Z,1.83
2022-09-22T15:01:10.422Z,1.00
2022-09-22T15:06:14.975Z,1.10
2022-09-22T15:11:18.844Z,1.40
2022-09-22T15:16:39.363Z,0.90
2022-09-22T15:21:48.337Z,0.77
2022-09-22T15:26:50.333Z,1.10
2022-09-22T15:31:52.404Z,0.90
2022-09-22T15:36:55.882Z,1.00
2022-09-22T15:41:58.052Z,0.88
2022-09-22T15:47:01.229Z,1.00
2022-09-22T15:52:04.811Z,1.00
2022-09-22T15:57:06.828Z,0.98
2022-09-22T16:02:11.260Z,0.80
2022-09-22T16:07:14.155Z,0.90
2022-09-22T16:12:18.633Z,1.10
2022-09-22T16:17:24.038Z,1.17
2022-09-22T16:22:26.003Z,0.98
2022-09-22T16:27:29.560Z,0.90
2022-09-22T16:32:34.104Z,1.00
2022-09-22T16:37:36.091Z,1.00
2022-09-22T16:42:39.661Z,1.20
2022-09-22T16:47:41.646Z,1.00
2022-09-22T16:52:43.997Z,1.27
2022-09-22T16:57:46.056Z,1.38
2022-09-22T17:02:48.035Z,1.08
2022-09-22T17:07:50.598Z,1.20
2022-09-22T17:12:54.503Z,1.30
2022-09-22T17:17:56.526Z,1.27
2022-09-22T17:22:58.625Z,2.25
2022-09-22T17:28:00.873Z,2.10
2022-09-22T17:33:02.984Z,2.05
2022-09-22T17:38:04.980Z,3.08
2022-09-22T17:43:07.051Z,2.40
2022-09-22T17:48:27.749Z,2.22
2022-09-22T17:53:48.232Z,2.60
2022-09-22T17:58:50.255Z,2.15
2022-09-22T18:03:52.376Z,2.70
2022-09-22T18:09:02.085Z,3.00
2022-09-22T18:14:05.116Z,2.35
2022-09-22T18:19:07.296Z,2.42
2022-09-22T18:24:09.342Z,2.55
2022-09-22T18:29:12.204Z,2.55
2022-09-22T18:34:14.212Z,2.95
2022-09-22T18:39:17.377Z,2.83
2022-09-22T18:44:19.402Z,4.00
2022-09-22T18:49:21.788Z,4.10
2022-09-22T18:54:23.821Z,4.63
2022-09-22T18:59:27.696Z,4.53
2022-09-22T19:04:30.156Z,3.75
2022-09-22T19:09:32.864Z,3.05
2022-09-22T19:14:39.156Z,2.78
2022-09-22T19:19:42.345Z,3.20
2022-09-22T19:24:47.893Z,4.40
2022-09-22T19:29:50.558Z,4.97
2022-09-22T19:34:54.745Z,4.15
2022-09-22T19:39:56.807Z,4.32
2022-09-22T19:44:59.314Z,4.20
2022-09-22T19:50:01.405Z,3.97
2022-09-22T19:55:07.998Z,3.80
2022-09-22T20:00:26.571Z,4.00
2022-09-22T20:05:38.886Z,5.43
2022-09-22T20:10:41.933Z,5.78
2022-09-22T20:15:43.997Z,5.60
2022-09-22T20:20:46.119Z,4.57
2022-09-22T20:25:49.696Z,4.40
2022-09-22T20:30:52.036Z,4.60
2022-09-22T20:35:57.476Z,5.07
2022-09-22T20:41:05.503Z,3.88
2022-09-22T20:46:09.227Z,3.55
2022-09-22T20:51:14.421Z,4.55
2022-09-22T20:56:16.489Z,5.05
2022-09-22T21:01:18.953Z,4.88
2022-09-22T21:06:21.062Z,4.88
2022-09-22T21:11:23.127Z,5.32
2022-09-22T21:16:25.400Z,5.88
2022-09-22T21:21:29.112Z,7.95
2022-09-22T21:26:31.868Z,6.18
2022-09-22T21:31:34.762Z,8.38
2022-09-22T21:36:37.129Z,7.65
2022-09-22T21:41:39.193Z,7.32
2022-09-22T21:46:43.000Z,6.20
2022-09-22T21:51:46.084Z,5.78
2022-09-22T21:56:50.389Z,6.25
2022-09-22T22:01:52.459Z,6.65
2022-09-22T22:06:54.953Z,6.80
2022-09-22T22:11:59.220Z,5.90
2022-09-22T22:17:02.231Z,5.88
2022-09-22T22:22:05.172Z,5.50
2022-09-22T22:27:09.830Z,5.13
2022-09-22T22:32:11.859Z,4.90
2022-09-22T22:37:13.827Z,5.65
2022-09-22T22:42:15.878Z,5.43
2022-09-22T22:47:17.856Z,5.22
2022-09-22T22:52:19.811Z,5.03
2022-09-22T22:57:21.941Z,5.22
2022-09-22T23:02:23.953Z,5.03
2022-09-22T23:07:26.030Z,5.57
2022-09-22T23:12:28.322Z,5.25
2022-09-22T23:17:31.917Z,5.43
2022-09-22T23:22:33.923Z,5.88
2022-09-22T23:27:35.929Z,5.82
2022-09-22T23:32:37.981Z,5.50
2022-09-22T23:37:39.952Z,6.35
2022-09-22T23:42:43.109Z,5.65
2022-09-22T23:47:45.080Z,6.28
2022-09-22T23:52:47.094Z,6.75
2022-09-22T23:57:49.070Z,6.05
